sensor_id;sensor_type;location;lat;lon;timestamp;P1;durP1;ratioP1;P2;durP2;ratioP2
75787;SDS011;64406;50.024;14.492;2023-04-25T00:01:24;4.03;;;1.88;;
75787;SDS011;64406;50.024;14.492;2023-04-25T00:03:50;3.17;;;2.20;;
75787;SDS011;64406;50.024;14.492;2023-04-25T00:06:16;4.28;;;2.28;;
75787;SDS011;64406;50.024;14.492;2023-04-25T00:08:43;4.00;;;1.90;;
75787;SDS011;64406;50.024;14.492;2023-04-25T00:11:09;3.20;;;1.90;;
75787;SDS011;64406;50.024;14.492;2023-04-25T00:13:35;3.33;;;2.08;;
75787;SDS011;64406;50.024;14.492;2023-04-25T00:16:01;2.72;;;2.15;;
75787;SDS011;64406;50.024;14.492;2023-04-25T00:18:27;2.40;;;1.83;;
75787;SDS011;64406;50.024;14.492;2023-04-25T00:20:54;3.30;;;2.08;;
75787;SDS011;64406;50.024;14.492;2023-04-25T00:23:20;3.83;;;2.28;;
75787;SDS011;64406;50.024;14.492;2023-04-25T00:25:47;5.38;;;2.17;;
75787;SDS011;64406;50.024;14.492;2023-04-25T00:28:13;3.88;;;2.25;;
75787;SDS011;64406;50.024;14.492;2023-04-25T00:30:40;4.35;;;2.33;;
75787;SDS011;64406;50.024;14.492;2023-04-25T00:33:06;3.25;;;2.25;;
75787;SDS011;64406;50.024;14.492;2023-04-25T00:35:32;5.40;;;1.90;;
75787;SDS011;64406;50.024;14.492;2023-04-25T00:37:58;2.83;;;2.13;;
75787;SDS011;64406;50.024;14.492;2023-04-25T00:40:24;4.72;;;2.33;;
75787;SDS011;64406;50.024;14.492;2023-04-25T00:42:51;3.90;;;2.00;;
75787;SDS011;64406;50.024;14.492;2023-04-25T00:45:18;3.92;;;2.00;;
75787;SDS011;64406;50.024;14.492;2023-04-25T00:47:44;6.13;;;2.30;;
75787;SDS011;64406;50.024;14.492;2023-04-25T00:50:11;4.78;;;2.45;;
75787;SDS011;64406;50.024;14.492;2023-04-25T00:52:40;2.80;;;1.77;;
75787;SDS011;64406;50.024;14.492;2023-04-25T00:55:08;3.17;;;2.17;;
75787;SDS011;64406;50.024;14.492;2023-04-25T00:57:36;2.72;;;2.30;;
75787;SDS011;64406;50.024;14.492;2023-04-25T01:00:02;3.42;;;2.33;;
75787;SDS011;64406;50.024;14.492;2023-04-25T01:02:31;4.13;;;2.67;;
75787;SDS011;64406;50.024;14.492;2023-04-25T01:04:58;3.63;;;2.30;;
75787;SDS011;64406;50.024;14.492;2023-04-25T01:07:24;3.90;;;2.30;;
75787;SDS011;64406;50.024;14.492;2023-04-25T01:09:51;3.85;;;2.75;;
75787;SDS011;64406;50.024;14.492;2023-04-25T01:12:18;4.35;;;2.50;;
75787;SDS011;64406;50.024;14.492;2023-04-25T01:14:45;4.45;;;2.28;;
75787;SDS011;64406;50.024;14.492;2023-04-25T01:17:11;3.30;;;2.53;;
75787;SDS011;64406;50.024;14.492;2023-04-25T01:19:37;5.32;;;2.35;;
75787;SDS011;64406;50.024;14.492;2023-04-25T01:22:03;4.20;;;2.42;;
75787;SDS011;64406;50.024;14.492;2023-04-25T01:24:33;5.30;;;2.60;;
75787;SDS011;64406;50.024;14.492;2023-04-25T01:26:59;5.35;;;3.10;;
75787;SDS011;64406;50.024;14.492;2023-04-25T01:29:26;4.10;;;2.63;;
75787;SDS011;64406;50.024;14.492;2023-04-25T01:31:53;4.07;;;2.42;;
75787;SDS011;64406;50.024;14.492;2023-04-25T01:34:19;5.63;;;2.92;;
75787;SDS011;64406;50.024;14.492;2023-04-25T01:36:46;4.10;;;2.40;;
75787;SDS011;64406;50.024;14.492;2023-04-25T01:39:15;6.07;;;3.28;;
75787;SDS011;64406;50.024;14.492;2023-04-25T01:41:41;4.85;;;2.80;;
75787;SDS011;64406;50.024;14.492;2023-04-25T01:44:08;5.47;;;3.00;;
75787;SDS011;64406;50.024;14.492;2023-04-25T01:46:34;4.57;;;2.47;;
75787;SDS011;64406;50.024;14.492;2023-04-25T01:49:00;3.85;;;2.55;;
75787;SDS011;64406;50.024;14.492;2023-04-25T01:51:26;5.88;;;3.20;;
75787;SDS011;64406;50.024;14.492;2023-04-25T01:53:52;5.63;;;3.15;;
75787;SDS011;64406;50.024;14.492;2023-04-25T01:56:18;5.05;;;3.47;;
75787;SDS011;64406;50.024;14.492;2023-04-25T01:58:45;6.68;;;3.55;;
75787;SDS011;64406;50.024;14.492;2023-04-25T02:01:11;5.63;;;3.75;;
75787;SDS011;64406;50.024;14.492;2023-04-25T02:03:37;5.20;;;3.28;;
75787;SDS011;64406;50.024;14.492;2023-04-25T02:06:03;7.45;;;3.83;;
75787;SDS011;64406;50.024;14.492;2023-04-25T02:08:29;7.03;;;4.07;;
75787;SDS011;64406;50.024;14.492;2023-04-25T02:10:55;6.05;;;3.85;;
75787;SDS011;64406;50.024;14.492;2023-04-25T02:13:21;5.63;;;3.40;;
75787;SDS011;64406;50.024;14.492;2023-04-25T02:15:46;5.95;;;3.53;;
75787;SDS011;64406;50.024;14.492;2023-04-25T02:18:12;5.32;;;4.07;;
75787;SDS011;64406;50.024;14.492;2023-04-25T02:20:38;6.05;;;3.88;;
75787;SDS011;64406;50.024;14.492;2023-04-25T02:23:04;5.63;;;3.45;;
75787;SDS011;64406;50.024;14.492;2023-04-25T02:25:30;5.43;;;3.70;;
75787;SDS011;64406;50.024;14.492;2023-04-25T02:27:56;5.55;;;4.20;;
75787;SDS011;64406;50.024;14.492;2023-04-25T02:30:21;6.53;;;3.90;;
75787;SDS011;64406;50.024;14.492;2023-04-25T02:32:47;7.00;;;4.50;;
75787;SDS011;64406;50.024;14.492;2023-04-25T02:35:12;6.78;;;4.32;;
75787;SDS011;64406;50.024;14.492;2023-04-25T02:37:39;7.03;;;4.68;;
75787;SDS011;64406;50.024;14.492;2023-04-25T02:40:05;6.45;;;3.88;;
75787;SDS011;64406;50.024;14.492;2023-04-25T02:42:32;6.00;;;3.90;;
75787;SDS011;64406;50.024;14.492;2023-04-25T02:44:57;9.10;;;4.60;;
75787;SDS011;64406;50.024;14.492;2023-04-25T02:47:23;5.43;;;4.00;;
75787;SDS011;64406;50.024;14.492;2023-04-25T02:49:49;5.88;;;3.92;;
75787;SDS011;64406;50.024;14.492;2023-04-25T02:52:16;9.10;;;5.15;;
75787;SDS011;64406;50.024;14.492;2023-04-25T02:54:42;8.60;;;4.75;;
75787;SDS011;64406;50.024;14.492;2023-04-25T02:57:08;5.78;;;4.07;;
75787;SDS011;64406;50.024;14.492;2023-04-25T02:59:35;10.25;;;5.22;;
75787;SDS011;64406;50.024;14.492;2023-04-25T03:02:01;7.82;;;4.72;;
75787;SDS011;64406;50.024;14.492;2023-04-25T03:04:26;8.45;;;4.90;;
75787;SDS011;64406;50.024;14.492;2023-04-25T03:06:52;9.25;;;4.63;;
75787;SDS011;64406;50.024;14.492;2023-04-25T03:09:18;7.78;;;5.13;;
75787;SDS011;64406;50.024;14.492;2023-04-25T03:11:45;7.05;;;4.50;;
75787;SDS011;64406;50.024;14.492;2023-04-25T03:14:12;7.70;;;4.57;;
75787;SDS011;64406;50.024;14.492;2023-04-25T03:16:38;9.05;;;5.00;;
75787;SDS011;64406;50.024;14.492;2023-04-25T03:19:04;9.57;;;4.85;;
75787;SDS011;64406;50.024;14.492;2023-04-25T03:21:31;7.25;;;4.50;;
75787;SDS011;64406;50.024;14.492;2023-04-25T03:23:58;9.77;;;4.78;;
75787;SDS011;64406;50.024;14.492;2023-04-25T03:26:24;8.43;;;4.95;;
75787;SDS011;64406;50.024;14.492;2023-04-25T03:28:50;7.35;;;4.38;;
75787;SDS011;64406;50.024;14.492;2023-04-25T03:31:16;7.85;;;4.20;;
75787;SDS011;64406;50.024;14.492;2023-04-25T03:33:48;6.18;;;4.40;;
75787;SDS011;64406;50.024;14.492;2023-04-25T03:36:14;6.55;;;4.70;;
75787;SDS011;64406;50.024;14.492;2023-04-25T03:38:39;8.57;;;4.93;;
75787;SDS011;64406;50.024;14.492;2023-04-25T03:41:07;6.82;;;4.05;;
75787;SDS011;64406;50.024;14.492;2023-04-25T03:43:32;9.95;;;4.72;;
75787;SDS011;64406;50.024;14.492;2023-04-25T03:45:58;7.20;;;4.68;;
75787;SDS011;64406;50.024;14.492;2023-04-25T03:48:25;6.07;;;4.28;;
75787;SDS011;64406;50.024;14.492;2023-04-25T03:50:52;6.95;;;4.10;;
75787;SDS011;64406;50.024;14.492;2023-04-25T03:53:18;9.23;;;5.30;;
75787;SDS011;64406;50.024;14.492;2023-04-25T03:55:44;5.93;;;4.10;;
75787;SDS011;64406;50.024;14.492;2023-04-25T03:58:10;7.75;;;4.68;;
75787;SDS011;64406;50.024;14.492;2023-04-25T04:00:36;7.75;;;5.13;;
75787;SDS011;64406;50.024;14.492;2023-04-25T04:03:02;7.50;;;4.88;;
75787;SDS011;64406;50.024;14.492;2023-04-25T04:05:28;8.43;;;4.47;;
75787;SDS011;64406;50.024;14.492;2023-04-25T04:07:54;8.15;;;4.38;;
75787;SDS011;64406;50.024;14.492;2023-04-25T04:10:20;8.02;;;4.95;;
75787;SDS011;64406;50.024;14.492;2023-04-25T04:12:46;8.48;;;4.95;;
75787;SDS011;64406;50.024;14.492;2023-04-25T04:15:12;8.70;;;4.22;;
75787;SDS011;64406;50.024;14.492;2023-04-25T04:17:38;7.03;;;4.93;;
75787;SDS011;64406;50.024;14.492;2023-04-25T04:20:04;8.55;;;4.93;;
75787;SDS011;64406;50.024;14.492;2023-04-25T04:22:31;7.25;;;4.25;;
75787;SDS011;64406;50.024;14.492;2023-04-25T04:24:56;9.07;;;4.28;;
75787;SDS011;64406;50.024;14.492;2023-04-25T04:27:22;6.25;;;3.85;;
75787;SDS011;64406;50.024;14.492;2023-04-25T04:29:48;7.47;;;4.25;;
75787;SDS011;64406;50.024;14.492;2023-04-25T04:32:15;6.97;;;4.60;;
75787;SDS011;64406;50.024;14.492;2023-04-25T04:34:42;8.13;;;4.10;;
75787;SDS011;64406;50.024;14.492;2023-04-25T04:37:08;5.10;;;3.58;;
75787;SDS011;64406;50.024;14.492;2023-04-25T04:39:35;7.68;;;4.95;;
75787;SDS011;64406;50.024;14.492;2023-04-25T04:42:03;5.43;;;3.97;;
75787;SDS011;64406;50.024;14.492;2023-04-25T04:44:30;5.40;;;4.15;;
75787;SDS011;64406;50.024;14.492;2023-04-25T04:46:59;6.60;;;4.28;;
75787;SDS011;64406;50.024;14.492;2023-04-25T04:49:25;8.65;;;4.28;;
75787;SDS011;64406;50.024;14.492;2023-04-25T04:51:51;7.28;;;4.45;;
75787;SDS011;64406;50.024;14.492;2023-04-25T04:54:17;13.80;;;4.65;;
75787;SDS011;64406;50.024;14.492;2023-04-25T04:56:43;5.20;;;4.13;;
75787;SDS011;64406;50.024;14.492;2023-04-25T04:59:09;8.43;;;4.90;;
75787;SDS011;64406;50.024;14.492;2023-04-25T05:01:34;6.88;;;4.57;;
75787;SDS011;64406;50.024;14.492;2023-04-25T05:04:01;8.10;;;4.45;;
75787;SDS011;64406;50.024;14.492;2023-04-25T05:06:28;5.15;;;4.07;;
75787;SDS011;64406;50.024;14.492;2023-04-25T05:08:55;8.68;;;4.60;;
75787;SDS011;64406;50.024;14.492;2023-04-25T05:11:22;7.45;;;4.60;;
75787;SDS011;64406;50.024;14.492;2023-04-25T05:13:49;8.65;;;4.68;;
75787;SDS011;64406;50.024;14.492;2023-04-25T05:16:16;6.90;;;4.50;;
75787;SDS011;64406;50.024;14.492;2023-04-25T05:18:42;7.07;;;4.88;;
75787;SDS011;64406;50.024;14.492;2023-04-25T05:21:07;8.25;;;5.05;;
75787;SDS011;64406;50.024;14.492;2023-04-25T05:23:33;6.63;;;4.28;;
75787;SDS011;64406;50.024;14.492;2023-04-25T05:25:59;5.20;;;3.88;;
75787;SDS011;64406;50.024;14.492;2023-04-25T05:28:27;6.53;;;4.60;;
75787;SDS011;64406;50.024;14.492;2023-04-25T05:30:53;6.00;;;4.07;;
75787;SDS011;64406;50.024;14.492;2023-04-25T05:33:19;8.15;;;5.07;;
75787;SDS011;64406;50.024;14.492;2023-04-25T05:35:44;6.95;;;4.70;;
75787;SDS011;64406;50.024;14.492;2023-04-25T05:38:11;8.10;;;5.22;;
75787;SDS011;64406;50.024;14.492;2023-04-25T05:40:36;6.95;;;4.53;;
75787;SDS011;64406;50.024;14.492;2023-04-25T05:43:03;6.78;;;4.43;;
75787;SDS011;64406;50.024;14.492;2023-04-25T05:45:30;7.68;;;4.68;;
75787;SDS011;64406;50.024;14.492;2023-04-25T05:47:56;7.57;;;4.55;;
75787;SDS011;64406;50.024;14.492;2023-04-25T05:50:28;13.07;;;4.85;;
75787;SDS011;64406;50.024;14.492;2023-04-25T05:52:55;7.30;;;4.53;;
75787;SDS011;64406;50.024;14.492;2023-04-25T05:55:20;7.85;;;5.07;;
75787;SDS011;64406;50.024;14.492;2023-04-25T05:57:47;14.65;;;5.05;;
75787;SDS011;64406;50.024;14.492;2023-04-25T06:00:13;10.68;;;5.03;;
75787;SDS011;64406;50.024;14.492;2023-04-25T06:02:41;7.50;;;4.30;;
75787;SDS011;64406;50.024;14.492;2023-04-25T06:05:07;8.32;;;4.40;;
75787;SDS011;64406;50.024;14.492;2023-04-25T06:07:34;15.32;;;5.78;;
75787;SDS011;64406;50.024;14.492;2023-04-25T06:10:00;7.53;;;4.68;;
75787;SDS011;64406;50.024;14.492;2023-04-25T06:12:26;17.35;;;6.00;;
75787;SDS011;64406;50.024;14.492;2023-04-25T06:14:52;10.50;;;5.30;;
75787;SDS011;64406;50.024;14.492;2023-04-25T06:17:18;8.73;;;4.97;;
75787;SDS011;64406;50.024;14.492;2023-04-25T06:19:44;10.27;;;4.72;;
75787;SDS011;64406;50.024;14.492;2023-04-25T06:22:10;8.00;;;4.80;;
75787;SDS011;64406;50.024;14.492;2023-04-25T06:24:35;10.10;;;4.28;;
75787;SDS011;64406;50.024;14.492;2023-04-25T06:27:01;7.10;;;4.70;;
75787;SDS011;64406;50.024;14.492;2023-04-25T06:29:27;6.82;;;4.30;;
75787;SDS011;64406;50.024;14.492;2023-04-25T06:31:52;8.68;;;4.63;;
75787;SDS011;64406;50.024;14.492;2023-04-25T06:34:18;4.88;;;3.85;;
75787;SDS011;64406;50.024;14.492;2023-04-25T06:36:44;5.78;;;4.20;;
75787;SDS011;64406;50.024;14.492;2023-04-25T06:39:10;6.43;;;4.28;;
75787;SDS011;64406;50.024;14.492;2023-04-25T06:41:37;11.50;;;5.30;;
75787;SDS011;64406;50.024;14.492;2023-04-25T06:44:03;7.95;;;4.32;;
75787;SDS011;64406;50.024;14.492;2023-04-25T06:46:28;11.25;;;4.97;;
75787;SDS011;64406;50.024;14.492;2023-04-25T06:48:54;7.65;;;4.68;;
75787;SDS011;64406;50.024;14.492;2023-04-25T06:51:20;9.60;;;4.22;;
75787;SDS011;64406;50.024;14.492;2023-04-25T06:53:47;5.80;;;4.18;;
75787;SDS011;64406;50.024;14.492;2023-04-25T06:56:12;6.57;;;4.10;;
75787;SDS011;64406;50.024;14.492;2023-04-25T06:58:38;8.20;;;4.50;;
75787;SDS011;64406;50.024;14.492;2023-04-25T07:01:04;8.20;;;4.93;;
75787;SDS011;64406;50.024;14.492;2023-04-25T07:03:29;9.38;;;4.03;;
75787;SDS011;64406;50.024;14.492;2023-04-25T07:05:55;8.13;;;3.97;;
75787;SDS011;64406;50.024;14.492;2023-04-25T07:08:21;6.63;;;4.43;;
75787;SDS011;64406;50.024;14.492;2023-04-25T07:10:47;8.32;;;4.20;;
75787;SDS011;64406;50.024;14.492;2023-04-25T07:13:12;7.07;;;3.97;;
75787;SDS011;64406;50.024;14.492;2023-04-25T07:15:38;6.22;;;3.80;;
75787;SDS011;64406;50.024;14.492;2023-04-25T07:18:03;6.35;;;4.43;;
75787;SDS011;64406;50.024;14.492;2023-04-25T07:20:30;6.63;;;4.45;;
75787;SDS011;64406;50.024;14.492;2023-04-25T07:22:56;8.15;;;4.57;;
75787;SDS011;64406;50.024;14.492;2023-04-25T07:25:22;8.77;;;4.30;;
75787;SDS011;64406;50.024;14.492;2023-04-25T07:27:48;8.85;;;4.82;;
75787;SDS011;64406;50.024;14.492;2023-04-25T07:30:14;5.80;;;3.92;;
75787;SDS011;64406;50.024;14.492;2023-04-25T07:32:40;7.80;;;4.22;;
75787;SDS011;64406;50.024;14.492;2023-04-25T07:35:06;4.88;;;3.85;;
75787;SDS011;64406;50.024;14.492;2023-04-25T07:37:33;9.50;;;4.43;;
75787;SDS011;64406;50.024;14.492;2023-04-25T07:40:00;6.55;;;4.30;;
75787;SDS011;64406;50.024;14.492;2023-04-25T07:42:25;7.65;;;4.45;;
75787;SDS011;64406;50.024;14.492;2023-04-25T07:44:51;6.05;;;3.67;;
75787;SDS011;64406;50.024;14.492;2023-04-25T07:47:17;9.88;;;4.85;;
75787;SDS011;64406;50.024;14.492;2023-04-25T07:49:44;5.82;;;3.88;;
75787;SDS011;64406;50.024;14.492;2023-04-25T07:52:10;8.57;;;4.90;;
75787;SDS011;64406;50.024;14.492;2023-04-25T07:54:36;9.98;;;4.90;;
75787;SDS011;64406;50.024;14.492;2023-04-25T07:57:02;6.38;;;4.20;;
75787;SDS011;64406;50.024;14.492;2023-04-25T07:59:28;6.57;;;3.97;;
75787;SDS011;64406;50.024;14.492;2023-04-25T08:01:53;6.60;;;4.45;;
75787;SDS011;64406;50.024;14.492;2023-04-25T08:04:19;8.02;;;5.28;;
75787;SDS011;64406;50.024;14.492;2023-04-25T08:06:45;5.60;;;3.90;;
75787;SDS011;64406;50.024;14.492;2023-04-25T08:09:11;5.18;;;3.97;;
75787;SDS011;64406;50.024;14.492;2023-04-25T08:11:36;5.22;;;4.03;;
75787;SDS011;64406;50.024;14.492;2023-04-25T08:14:02;6.00;;;3.72;;
75787;SDS011;64406;50.024;14.492;2023-04-25T08:16:28;5.75;;;4.07;;
75787;SDS011;64406;50.024;14.492;2023-04-25T08:18:54;6.82;;;4.43;;
75787;SDS011;64406;50.024;14.492;2023-04-25T08:21:30;5.80;;;3.85;;
75787;SDS011;64406;50.024;14.492;2023-04-25T08:23:57;6.55;;;4.30;;
75787;SDS011;64406;50.024;14.492;2023-04-25T08:26:23;7.63;;;4.82;;
75787;SDS011;64406;50.024;14.492;2023-04-25T08:28:50;5.53;;;3.72;;
75787;SDS011;64406;50.024;14.492;2023-04-25T08:31:16;5.95;;;4.20;;
75787;SDS011;64406;50.024;14.492;2023-04-25T08:33:42;7.15;;;4.40;;
75787;SDS011;64406;50.024;14.492;2023-04-25T08:36:08;5.95;;;4.15;;
75787;SDS011;64406;50.024;14.492;2023-04-25T08:38:34;5.00;;;3.90;;
75787;SDS011;64406;50.024;14.492;2023-04-25T08:41:00;6.70;;;4.28;;
75787;SDS011;64406;50.024;14.492;2023-04-25T08:43:30;5.25;;;3.75;;
75787;SDS011;64406;50.024;14.492;2023-04-25T08:45:58;4.53;;;3.33;;
75787;SDS011;64406;50.024;14.492;2023-04-25T08:48:29;5.25;;;3.40;;
75787;SDS011;64406;50.024;14.492;2023-04-25T08:50:57;3.88;;;2.97;;
75787;SDS011;64406;50.024;14.492;2023-04-25T08:53:26;7.95;;;3.42;;
75787;SDS011;64406;50.024;14.492;2023-04-25T08:55:58;4.82;;;3.70;;
75787;SDS011;64406;50.024;14.492;2023-04-25T08:58:25;4.25;;;3.00;;
75787;SDS011;64406;50.024;14.492;2023-04-25T09:00:52;7.30;;;4.25;;
75787;SDS011;64406;50.024;14.492;2023-04-25T09:03:18;5.03;;;3.58;;
75787;SDS011;64406;50.024;14.492;2023-04-25T09:05:43;4.90;;;3.47;;
75787;SDS011;64406;50.024;14.492;2023-04-25T09:08:10;4.35;;;3.20;;
75787;SDS011;64406;50.024;14.492;2023-04-25T09:10:35;5.57;;;3.75;;
75787;SDS011;64406;50.024;14.492;2023-04-25T09:15:29;4.40;;;3.03;;
75787;SDS011;64406;50.024;14.492;2023-04-25T09:17:55;4.97;;;3.05;;
75787;SDS011;64406;50.024;14.492;2023-04-25T09:20:21;4.72;;;2.95;;
75787;SDS011;64406;50.024;14.492;2023-04-25T09:22:47;3.78;;;2.90;;
75787;SDS011;64406;50.024;14.492;2023-04-25T09:25:13;3.75;;;2.78;;
75787;SDS011;64406;50.024;14.492;2023-04-25T09:27:48;6.50;;;2.80;;
75787;SDS011;64406;50.024;14.492;2023-04-25T09:30:18;3.08;;;2.60;;
75787;SDS011;64406;50.024;14.492;2023-04-25T09:32:44;4.65;;;3.55;;
75787;SDS011;64406;50.024;14.492;2023-04-25T09:35:10;4.75;;;3.53;;
75787;SDS011;64406;50.024;14.492;2023-04-25T09:37:36;7.13;;;3.55;;
75787;SDS011;64406;50.024;14.492;2023-04-25T09:40:04;5.30;;;3.55;;
75787;SDS011;64406;50.024;14.492;2023-04-25T09:42:32;5.68;;;3.38;;
75787;SDS011;64406;50.024;14.492;2023-04-25T09:45:00;5.28;;;3.17;;
75787;SDS011;64406;50.024;14.492;2023-04-25T09:47:29;4.25;;;2.92;;
75787;SDS011;64406;50.024;14.492;2023-04-25T09:49:55;6.13;;;3.42;;
75787;SDS011;64406;50.024;14.492;2023-04-25T09:52:22;6.07;;;3.25;;
75787;SDS011;64406;50.024;14.492;2023-04-25T09:54:49;3.63;;;2.70;;
75787;SDS011;64406;50.024;14.492;2023-04-25T09:57:17;5.00;;;3.22;;
75787;SDS011;64406;50.024;14.492;2023-04-25T10:02:17;7.32;;;3.42;;
75787;SDS011;64406;50.024;14.492;2023-04-25T10:04:54;12.02;;;3.60;;
75787;SDS011;64406;50.024;14.492;2023-04-25T10:07:25;4.45;;;3.30;;
75787;SDS011;64406;50.024;14.492;2023-04-25T10:10:00;4.40;;;3.63;;
75787;SDS011;64406;50.024;14.492;2023-04-25T10:12:28;4.88;;;3.75;;
75787;SDS011;64406;50.024;14.492;2023-04-25T10:14:56;6.95;;;2.97;;
75787;SDS011;64406;50.024;14.492;2023-04-25T10:17:23;6.57;;;3.85;;
75787;SDS011;64406;50.024;14.492;2023-04-25T10:19:52;7.30;;;3.60;;
75787;SDS011;64406;50.024;14.492;2023-04-25T10:24:53;6.57;;;4.32;;
75787;SDS011;64406;50.024;14.492;2023-04-25T10:27:21;6.22;;;3.90;;
75787;SDS011;64406;50.024;14.492;2023-04-25T10:29:59;6.75;;;4.57;;
75787;SDS011;64406;50.024;14.492;2023-04-25T10:32:26;5.07;;;3.83;;
75787;SDS011;64406;50.024;14.492;2023-04-25T10:34:52;4.88;;;3.90;;
75787;SDS011;64406;50.024;14.492;2023-04-25T10:37:19;5.22;;;3.63;;
75787;SDS011;64406;50.024;14.492;2023-04-25T10:39:45;4.70;;;3.42;;
75787;SDS011;64406;50.024;14.492;2023-04-25T10:42:12;6.28;;;3.58;;
75787;SDS011;64406;50.024;14.492;2023-04-25T10:44:37;5.72;;;3.70;;
75787;SDS011;64406;50.024;14.492;2023-04-25T10:47:06;6.97;;;3.85;;
75787;SDS011;64406;50.024;14.492;2023-04-25T10:52:13;4.10;;;2.78;;
75787;SDS011;64406;50.024;14.492;2023-04-25T10:54:42;5.10;;;3.58;;
75787;SDS011;64406;50.024;14.492;2023-04-25T11:00:15;2.70;;;2.28;;
75787;SDS011;64406;50.024;14.492;2023-04-25T11:02:45;4.47;;;2.20;;
75787;SDS011;64406;50.024;14.492;2023-04-25T11:05:16;4.63;;;2.40;;
75787;SDS011;64406;50.024;14.492;2023-04-25T11:07:51;2.50;;;2.17;;
75787;SDS011;64406;50.024;14.492;2023-04-25T11:10:19;2.28;;;2.05;;
75787;SDS011;64406;50.024;14.492;2023-04-25T11:12:45;6.75;;;2.42;;
75787;SDS011;64406;50.024;14.492;2023-04-25T11:15:12;6.75;;;2.60;;
75787;SDS011;64406;50.024;14.492;2023-04-25T11:17:38;3.83;;;2.35;;
75787;SDS011;64406;50.024;14.492;2023-04-25T11:20:06;3.38;;;2.53;;
75787;SDS011;64406;50.024;14.492;2023-04-25T11:22:37;4.47;;;2.85;;
75787;SDS011;64406;50.024;14.492;2023-04-25T11:25:06;4.05;;;3.33;;
75787;SDS011;64406;50.024;14.492;2023-04-25T11:27:32;4.65;;;3.25;;
75787;SDS011;64406;50.024;14.492;2023-04-25T11:29:58;5.35;;;3.80;;
75787;SDS011;64406;50.024;14.492;2023-04-25T11:32:24;4.90;;;4.10;;
75787;SDS011;64406;50.024;14.492;2023-04-25T11:34:49;8.23;;;4.45;;
75787;SDS011;64406;50.024;14.492;2023-04-25T11:37:15;5.78;;;4.20;;
75787;SDS011;64406;50.024;14.492;2023-04-25T11:39:44;6.32;;;4.30;;
75787;SDS011;64406;50.024;14.492;2023-04-25T11:42:11;6.22;;;4.80;;
75787;SDS011;64406;50.024;14.492;2023-04-25T11:44:40;8.30;;;4.55;;
75787;SDS011;64406;50.024;14.492;2023-04-25T11:47:06;7.68;;;3.67;;
75787;SDS011;64406;50.024;14.492;2023-04-25T11:49:35;8.10;;;4.60;;
75787;SDS011;64406;50.024;14.492;2023-04-25T11:52:06;7.50;;;3.95;;
75787;SDS011;64406;50.024;14.492;2023-04-25T11:54:35;4.57;;;3.22;;
75787;SDS011;64406;50.024;14.492;2023-04-25T11:57:01;4.25;;;3.15;;
75787;SDS011;64406;50.024;14.492;2023-04-25T11:59:27;2.80;;;2.50;;
75787;SDS011;64406;50.024;14.492;2023-04-25T12:01:53;3.83;;;2.72;;
75787;SDS011;64406;50.024;14.492;2023-04-25T12:04:22;3.85;;;2.17;;
75787;SDS011;64406;50.024;14.492;2023-04-25T12:06:50;3.78;;;2.13;;
75787;SDS011;64406;50.024;14.492;2023-04-25T12:09:29;2.25;;;2.03;;
75787;SDS011;64406;50.024;14.492;2023-04-25T12:11:57;5.63;;;2.05;;
75787;SDS011;64406;50.024;14.492;2023-04-25T12:14:28;2.60;;;1.90;;
75787;SDS011;64406;50.024;14.492;2023-04-25T12:17:04;4.13;;;2.20;;
75787;SDS011;64406;50.024;14.492;2023-04-25T12:19:33;2.25;;;2.03;;
75787;SDS011;64406;50.024;14.492;2023-04-25T12:22:23;2.85;;;2.20;;
75787;SDS011;64406;50.024;14.492;2023-04-25T12:24:50;2.08;;;1.88;;
75787;SDS011;64406;50.024;14.492;2023-04-25T12:27:16;3.53;;;2.03;;
75787;SDS011;64406;50.024;14.492;2023-04-25T12:29:50;3.63;;;2.20;;
75787;SDS011;64406;50.024;14.492;2023-04-25T12:32:20;2.67;;;2.08;;
75787;SDS011;64406;50.024;14.492;2023-04-25T12:34:46;3.92;;;1.92;;
75787;SDS011;64406;50.024;14.492;2023-04-25T12:37:11;3.97;;;2.42;;
75787;SDS011;64406;50.024;14.492;2023-04-25T12:39:38;4.30;;;2.35;;
75787;SDS011;64406;50.024;14.492;2023-04-25T12:42:04;3.00;;;1.98;;
75787;SDS011;64406;50.024;14.492;2023-04-25T12:44:30;3.00;;;2.47;;
75787;SDS011;64406;50.024;14.492;2023-04-25T12:46:56;3.35;;;2.35;;
75787;SDS011;64406;50.024;14.492;2023-04-25T12:49:22;3.10;;;2.40;;
75787;SDS011;64406;50.024;14.492;2023-04-25T12:51:48;4.97;;;2.80;;
75787;SDS011;64406;50.024;14.492;2023-04-25T12:54:14;5.97;;;2.28;;
75787;SDS011;64406;50.024;14.492;2023-04-25T12:56:40;3.40;;;2.40;;
75787;SDS011;64406;50.024;14.492;2023-04-25T12:59:07;3.00;;;2.05;;
75787;SDS011;64406;50.024;14.492;2023-04-25T13:01:32;2.10;;;1.90;;
75787;SDS011;64406;50.024;14.492;2023-04-25T13:03:58;3.75;;;2.10;;
75787;SDS011;64406;50.024;14.492;2023-04-25T13:06:24;4.90;;;2.10;;
75787;SDS011;64406;50.024;14.492;2023-04-25T13:08:49;6.65;;;2.20;;
75787;SDS011;64406;50.024;14.492;2023-04-25T13:11:15;5.32;;;2.28;;
75787;SDS011;64406;50.024;14.492;2023-04-25T13:13:41;5.53;;;2.40;;
75787;SDS011;64406;50.024;14.492;2023-04-25T13:16:07;5.57;;;2.95;;
75787;SDS011;64406;50.024;14.492;2023-04-25T13:18:34;4.00;;;2.40;;
75787;SDS011;64406;50.024;14.492;2023-04-25T13:21:00;5.22;;;2.35;;
75787;SDS011;64406;50.024;14.492;2023-04-25T13:23:27;5.50;;;2.42;;
75787;SDS011;64406;50.024;14.492;2023-04-25T13:25:54;4.68;;;2.78;;
75787;SDS011;64406;50.024;14.492;2023-04-25T13:28:26;5.72;;;3.60;;
75787;SDS011;64406;50.024;14.492;2023-04-25T13:30:51;4.43;;;2.28;;
75787;SDS011;64406;50.024;14.492;2023-04-25T13:33:17;3.33;;;2.70;;
75787;SDS011;64406;50.024;14.492;2023-04-25T13:35:44;5.43;;;2.42;;
75787;SDS011;64406;50.024;14.492;2023-04-25T13:38:20;3.97;;;2.60;;
75787;SDS011;64406;50.024;14.492;2023-04-25T13:40:46;4.57;;;2.55;;
75787;SDS011;64406;50.024;14.492;2023-04-25T13:43:12;3.15;;;2.40;;
75787;SDS011;64406;50.024;14.492;2023-04-25T13:45:38;3.88;;;2.25;;
75787;SDS011;64406;50.024;14.492;2023-04-25T13:48:04;2.95;;;2.47;;
75787;SDS011;64406;50.024;14.492;2023-04-25T13:50:30;12.93;;;2.50;;
75787;SDS011;64406;50.024;14.492;2023-04-25T13:52:57;2.50;;;2.20;;
75787;SDS011;64406;50.024;14.492;2023-04-25T13:55:22;3.17;;;2.72;;
75787;SDS011;64406;50.024;14.492;2023-04-25T13:57:48;3.40;;;2.25;;
75787;SDS011;64406;50.024;14.492;2023-04-25T14:00:14;3.85;;;2.33;;
75787;SDS011;64406;50.024;14.492;2023-04-25T14:02:40;8.35;;;3.17;;
75787;SDS011;64406;50.024;14.492;2023-04-25T14:05:06;5.60;;;2.45;;
75787;SDS011;64406;50.024;14.492;2023-04-25T14:07:33;3.22;;;1.80;;
75787;SDS011;64406;50.024;14.492;2023-04-25T14:10:00;2.65;;;1.98;;
75787;SDS011;64406;50.024;14.492;2023-04-25T14:12:26;9.23;;;2.40;;
75787;SDS011;64406;50.024;14.492;2023-04-25T14:14:52;2.25;;;1.60;;
75787;SDS011;64406;50.024;14.492;2023-04-25T14:17:18;5.32;;;2.15;;
75787;SDS011;64406;50.024;14.492;2023-04-25T14:19:44;7.03;;;1.92;;
75787;SDS011;64406;50.024;14.492;2023-04-25T14:22:15;2.63;;;1.80;;
75787;SDS011;64406;50.024;14.492;2023-04-25T14:24:41;3.08;;;1.95;;
75787;SDS011;64406;50.024;14.492;2023-04-25T14:27:07;2.92;;;2.10;;
75787;SDS011;64406;50.024;14.492;2023-04-25T14:29:33;4.45;;;2.40;;
75787;SDS011;64406;50.024;14.492;2023-04-25T14:31:59;4.68;;;2.25;;
75787;SDS011;64406;50.024;14.492;2023-04-25T14:34:25;4.47;;;2.45;;
75787;SDS011;64406;50.024;14.492;2023-04-25T14:36:51;2.78;;;2.20;;
75787;SDS011;64406;50.024;14.492;2023-04-25T14:39:17;2.33;;;2.10;;
75787;SDS011;64406;50.024;14.492;2023-04-25T14:41:43;4.22;;;1.83;;
75787;SDS011;64406;50.024;14.492;2023-04-25T14:44:09;3.60;;;1.92;;